sensor_id;sensor_type;location;lat;lon;timestamp;P1;durP1;ratioP1;P2;durP2;ratioP2
62289;SDS011;48284;46.828;29.480;2022-09-27T00:01:04;4.38;;;3.10;;
62289;SDS011;48284;46.828;29.480;2022-09-27T00:03:34;3.97;;;2.90;;
62289;SDS011;48284;46.828;29.480;2022-09-27T00:06:04;3.28;;;2.70;;
62289;SDS011;48284;46.828;29.480;2022-09-27T00:08:35;3.78;;;2.95;;
62289;SDS011;48284;46.828;29.480;2022-09-27T00:11:04;3.42;;;3.13;;
62289;SDS011;48284;46.828;29.480;2022-09-27T00:13:36;3.33;;;2.92;;
62289;SDS011;48284;46.828;29.480;2022-09-27T00:16:04;5.45;;;2.92;;
62289;SDS011;48284;46.828;29.480;2022-09-27T00:18:33;4.88;;;3.22;;
62289;SDS011;48284;46.828;29.480;2022-09-27T00:21:05;5.68;;;3.25;;
62289;SDS011;48284;46.828;29.480;2022-09-27T00:23:35;4.72;;;3.20;;
62289;SDS011;48284;46.828;29.480;2022-09-27T00:26:04;3.72;;;3.20;;
62289;SDS011;48284;46.828;29.480;2022-09-27T00:28:35;3.72;;;3.20;;
62289;SDS011;48284;46.828;29.480;2022-09-27T00:31:04;6.68;;;3.08;;
62289;SDS011;48284;46.828;29.480;2022-09-27T00:33:41;3.88;;;3.00;;
62289;SDS011;48284;46.828;29.480;2022-09-27T00:36:10;6.47;;;3.28;;
62289;SDS011;48284;46.828;29.480;2022-09-27T00:38:39;5.28;;;3.05;;
62289;SDS011;48284;46.828;29.480;2022-09-27T00:41:08;3.60;;;3.20;;
62289;SDS011;48284;46.828;29.480;2022-09-27T00:43:45;3.95;;;2.95;;
62289;SDS011;48284;46.828;29.480;2022-09-27T00:46:18;4.50;;;3.20;;
62289;SDS011;48284;46.828;29.480;2022-09-27T00:48:52;7.25;;;3.58;;
62289;SDS011;48284;46.828;29.480;2022-09-27T00:51:31;5.38;;;3.25;;
62289;SDS011;48284;46.828;29.480;2022-09-27T00:54:04;4.53;;;3.30;;
62289;SDS011;48284;46.828;29.480;2022-09-27T00:56:34;4.45;;;3.00;;
62289;SDS011;48284;46.828;29.480;2022-09-27T00:59:07;3.85;;;3.00;;
62289;SDS011;48284;46.828;29.480;2022-09-27T01:01:41;5.13;;;3.00;;
62289;SDS011;48284;46.828;29.480;2022-09-27T01:04:10;6.40;;;3.03;;
62289;SDS011;48284;46.828;29.480;2022-09-27T01:06:41;4.97;;;3.03;;
62289;SDS011;48284;46.828;29.480;2022-09-27T01:09:09;5.70;;;3.08;;
62289;SDS011;48284;46.828;29.480;2022-09-27T01:11:40;6.03;;;3.30;;
62289;SDS011;48284;46.828;29.480;2022-09-27T01:17:12;4.82;;;2.80;;
62289;SDS011;48284;46.828;29.480;2022-09-27T01:20:01;6.63;;;2.88;;
62289;SDS011;48284;46.828;29.480;2022-09-27T01:22:44;4.50;;;3.20;;
62289;SDS011;48284;46.828;29.480;2022-09-27T01:25:31;4.43;;;3.40;;
62289;SDS011;48284;46.828;29.480;2022-09-27T01:28:20;3.58;;;2.80;;
62289;SDS011;48284;46.828;29.480;2022-09-27T01:31:00;11.65;;;3.10;;
62289;SDS011;48284;46.828;29.480;2022-09-27T01:33:39;3.30;;;2.80;;
62289;SDS011;48284;46.828;29.480;2022-09-27T01:36:16;3.50;;;3.10;;
62289;SDS011;48284;46.828;29.480;2022-09-27T01:38:56;3.28;;;2.72;;
62289;SDS011;48284;46.828;29.480;2022-09-27T01:42:00;3.35;;;3.05;;
62289;SDS011;48284;46.828;29.480;2022-09-27T01:44:43;3.85;;;3.05;;
62289;SDS011;48284;46.828;29.480;2022-09-27T01:47:23;5.43;;;3.13;;
62289;SDS011;48284;46.828;29.480;2022-09-27T01:50:12;4.20;;;3.15;;
62289;SDS011;48284;46.828;29.480;2022-09-27T01:52:46;7.43;;;2.65;;
62289;SDS011;48284;46.828;29.480;2022-09-27T01:55:20;5.43;;;3.20;;
62289;SDS011;48284;46.828;29.480;2022-09-27T01:58:21;4.10;;;3.15;;
62289;SDS011;48284;46.828;29.480;2022-09-27T02:00:56;3.95;;;3.17;;
62289;SDS011;48284;46.828;29.480;2022-09-27T02:03:29;7.40;;;2.95;;
62289;SDS011;48284;46.828;29.480;2022-09-27T02:06:29;3.47;;;2.83;;
62289;SDS011;48284;46.828;29.480;2022-09-27T02:09:22;4.15;;;3.13;;
62289;SDS011;48284;46.828;29.480;2022-09-27T02:12:18;3.33;;;2.80;;
62289;SDS011;48284;46.828;29.480;2022-09-27T02:14:56;3.38;;;3.08;;
62289;SDS011;48284;46.828;29.480;2022-09-27T02:17:34;4.47;;;3.30;;
62289;SDS011;48284;46.828;29.480;2022-09-27T02:20:12;3.80;;;2.92;;
62289;SDS011;48284;46.828;29.480;2022-09-27T02:22:52;3.50;;;3.20;;
62289;SDS011;48284;46.828;29.480;2022-09-27T02:25:26;4.28;;;3.15;;
62289;SDS011;48284;46.828;29.480;2022-09-27T02:27:58;5.65;;;3.40;;
62289;SDS011;48284;46.828;29.480;2022-09-27T02:30:35;4.88;;;3.70;;
62289;SDS011;48284;46.828;29.480;2022-09-27T02:33:19;4.13;;;3.08;;
62289;SDS011;48284;46.828;29.480;2022-09-27T02:35:53;3.90;;;3.50;;
62289;SDS011;48284;46.828;29.480;2022-09-27T02:38:22;4.75;;;3.00;;
62289;SDS011;48284;46.828;29.480;2022-09-27T02:40:52;4.75;;;2.85;;
62289;SDS011;48284;46.828;29.480;2022-09-27T02:43:21;4.78;;;2.80;;
62289;SDS011;48284;46.828;29.480;2022-09-27T02:45:59;4.20;;;3.00;;
62289;SDS011;48284;46.828;29.480;2022-09-27T02:48:42;13.10;;;3.72;;
62289;SDS011;48284;46.828;29.480;2022-09-27T02:54:11;5.65;;;2.97;;
62289;SDS011;48284;46.828;29.480;2022-09-27T02:57:06;5.53;;;3.22;;
62289;SDS011;48284;46.828;29.480;2022-09-27T02:59:58;7.15;;;3.42;;
62289;SDS011;48284;46.828;29.480;2022-09-27T03:02:42;4.32;;;2.90;;
62289;SDS011;48284;46.828;29.480;2022-09-27T03:05:21;6.03;;;3.25;;
62289;SDS011;48284;46.828;29.480;2022-09-27T03:07:54;3.75;;;3.35;;
62289;SDS011;48284;46.828;29.480;2022-09-27T03:10:25;3.33;;;3.03;;
62289;SDS011;48284;46.828;29.480;2022-09-27T03:12:55;4.43;;;3.20;;
62289;SDS011;48284;46.828;29.480;2022-09-27T03:15:26;4.15;;;3.08;;
62289;SDS011;48284;46.828;29.480;2022-09-27T03:18:00;4.05;;;2.90;;
62289;SDS011;48284;46.828;29.480;2022-09-27T03:20:38;4.30;;;3.60;;
62289;SDS011;48284;46.828;29.480;2022-09-27T03:23:10;4.13;;;2.90;;
62289;SDS011;48284;46.828;29.480;2022-09-27T03:25:39;3.97;;;3.28;;
62289;SDS011;48284;46.828;29.480;2022-09-27T03:28:11;3.58;;;3.22;;
62289;SDS011;48284;46.828;29.480;2022-09-27T03:30:41;4.28;;;3.20;;
62289;SDS011;48284;46.828;29.480;2022-09-27T03:33:17;5.03;;;2.70;;
62289;SDS011;48284;46.828;29.480;2022-09-27T03:35:54;5.22;;;3.40;;
62289;SDS011;48284;46.828;29.480;2022-09-27T03:38:24;4.25;;;3.50;;
62289;SDS011;48284;46.828;29.480;2022-09-27T03:40:52;4.10;;;3.17;;
62289;SDS011;48284;46.828;29.480;2022-09-27T03:43:21;4.00;;;3.00;;
62289;SDS011;48284;46.828;29.480;2022-09-27T03:45:50;4.97;;;2.88;;
62289;SDS011;48284;46.828;29.480;2022-09-27T03:48:19;7.22;;;3.20;;
62289;SDS011;48284;46.828;29.480;2022-09-27T03:50:53;5.10;;;2.90;;
62289;SDS011;48284;46.828;29.480;2022-09-27T03:55:52;3.47;;;2.85;;
62289;SDS011;48284;46.828;29.480;2022-09-27T03:58:21;9.85;;;3.20;;
62289;SDS011;48284;46.828;29.480;2022-09-27T04:00:50;6.03;;;3.30;;
62289;SDS011;48284;46.828;29.480;2022-09-27T04:03:19;4.82;;;3.03;;
62289;SDS011;48284;46.828;29.480;2022-09-27T04:05:50;3.33;;;3.00;;
62289;SDS011;48284;46.828;29.480;2022-09-27T04:08:27;4.30;;;2.85;;
62289;SDS011;48284;46.828;29.480;2022-09-27T04:10:56;3.75;;;3.13;;
62289;SDS011;48284;46.828;29.480;2022-09-27T04:13:25;3.40;;;2.90;;
62289;SDS011;48284;46.828;29.480;2022-09-27T04:15:55;4.82;;;3.53;;
62289;SDS011;48284;46.828;29.480;2022-09-27T04:18:42;10.93;;;3.33;;
62289;SDS011;48284;46.828;29.480;2022-09-27T04:21:13;6.50;;;2.88;;
62289;SDS011;48284;46.828;29.480;2022-09-27T04:23:51;3.75;;;2.88;;
62289;SDS011;48284;46.828;29.480;2022-09-27T04:26:22;5.32;;;3.20;;
62289;SDS011;48284;46.828;29.480;2022-09-27T04:29:02;3.88;;;3.25;;
62289;SDS011;48284;46.828;29.480;2022-09-27T04:31:36;3.08;;;2.78;;
62289;SDS011;48284;46.828;29.480;2022-09-27T04:34:10;4.90;;;3.10;;
62289;SDS011;48284;46.828;29.480;2022-09-27T04:39:13;4.18;;;2.80;;
62289;SDS011;48284;46.828;29.480;2022-09-27T04:41:43;5.15;;;3.25;;
62289;SDS011;48284;46.828;29.480;2022-09-27T04:44:12;3.08;;;2.75;;
62289;SDS011;48284;46.828;29.480;2022-09-27T04:46:44;4.57;;;3.38;;
62289;SDS011;48284;46.828;29.480;2022-09-27T04:49:13;6.80;;;2.80;;
62289;SDS011;48284;46.828;29.480;2022-09-27T04:51:44;4.72;;;2.70;;
62289;SDS011;48284;46.828;29.480;2022-09-27T04:56:52;3.47;;;2.80;;
62289;SDS011;48284;46.828;29.480;2022-09-27T04:59:21;3.30;;;2.83;;
62289;SDS011;48284;46.828;29.480;2022-09-27T05:01:49;3.30;;;3.00;;
62289;SDS011;48284;46.828;29.480;2022-09-27T05:04:34;3.33;;;2.88;;
62289;SDS011;48284;46.828;29.480;2022-09-27T05:07:04;6.35;;;2.88;;
62289;SDS011;48284;46.828;29.480;2022-09-27T05:09:43;3.70;;;3.20;;
62289;SDS011;48284;46.828;29.480;2022-09-27T05:12:12;8.20;;;3.63;;
62289;SDS011;48284;46.828;29.480;2022-09-27T05:14:53;11.60;;;3.08;;
62289;SDS011;48284;46.828;29.480;2022-09-27T05:17:42;5.50;;;3.70;;
62289;SDS011;48284;46.828;29.480;2022-09-27T05:20:29;7.85;;;3.70;;
62289;SDS011;48284;46.828;29.480;2022-09-27T05:23:27;9.10;;;3.80;;
62289;SDS011;48284;46.828;29.480;2022-09-27T05:25:57;7.97;;;3.75;;
62289;SDS011;48284;46.828;29.480;2022-09-27T05:28:31;8.43;;;3.60;;
62289;SDS011;48284;46.828;29.480;2022-09-27T05:31:00;7.65;;;4.32;;
62289;SDS011;48284;46.828;29.480;2022-09-27T05:33:30;11.07;;;3.75;;
62289;SDS011;48284;46.828;29.480;2022-09-27T05:36:18;7.15;;;3.28;;
62289;SDS011;48284;46.828;29.480;2022-09-27T05:38:47;5.30;;;3.42;;
62289;SDS011;48284;46.828;29.480;2022-09-27T05:41:19;8.23;;;3.30;;
62289;SDS011;48284;46.828;29.480;2022-09-27T05:43:48;8.88;;;3.47;;
62289;SDS011;48284;46.828;29.480;2022-09-27T05:46:17;5.35;;;3.38;;
62289;SDS011;48284;46.828;29.480;2022-09-27T05:48:46;9.10;;;3.30;;
62289;SDS011;48284;46.828;29.480;2022-09-27T05:51:15;7.90;;;3.65;;
62289;SDS011;48284;46.828;29.480;2022-09-27T05:53:46;9.85;;;3.75;;
62289;SDS011;48284;46.828;29.480;2022-09-27T05:56:24;7.25;;;3.63;;
62289;SDS011;48284;46.828;29.480;2022-09-27T05:59:12;6.35;;;3.72;;
62289;SDS011;48284;46.828;29.480;2022-09-27T06:02:04;4.65;;;3.30;;
62289;SDS011;48284;46.828;29.480;2022-09-27T06:04:52;4.90;;;3.38;;
62289;SDS011;48284;46.828;29.480;2022-09-27T06:10:15;7.18;;;3.88;;
62289;SDS011;48284;46.828;29.480;2022-09-27T06:12:46;6.30;;;4.35;;
62289;SDS011;48284;46.828;29.480;2022-09-27T06:15:32;5.20;;;3.65;;
62289;SDS011;48284;46.828;29.480;2022-09-27T06:18:03;8.65;;;3.90;;
62289;SDS011;48284;46.828;29.480;2022-09-27T06:20:34;6.55;;;3.50;;
62289;SDS011;48284;46.828;29.480;2022-09-27T06:23:03;10.48;;;3.85;;
62289;SDS011;48284;46.828;29.480;2022-09-27T06:25:33;6.80;;;3.80;;
62289;SDS011;48284;46.828;29.480;2022-09-27T06:28:24;6.43;;;3.63;;
62289;SDS011;48284;46.828;29.480;2022-09-27T06:30:55;7.35;;;3.78;;
62289;SDS011;48284;46.828;29.480;2022-09-27T06:33:36;6.68;;;3.53;;
62289;SDS011;48284;46.828;29.480;2022-09-27T06:36:06;6.32;;;3.67;;
62289;SDS011;48284;46.828;29.480;2022-09-27T06:38:37;7.45;;;3.45;;
62289;SDS011;48284;46.828;29.480;2022-09-27T06:41:29;5.07;;;3.55;;
62289;SDS011;48284;46.828;29.480;2022-09-27T06:44:16;5.60;;;3.63;;
62289;SDS011;48284;46.828;29.480;2022-09-27T06:47:23;7.57;;;3.83;;
62289;SDS011;48284;46.828;29.480;2022-09-27T06:50:28;6.18;;;3.50;;
62289;SDS011;48284;46.828;29.480;2022-09-27T06:52:58;8.73;;;3.72;;
62289;SDS011;48284;46.828;29.480;2022-09-27T06:55:27;11.80;;;3.70;;
62289;SDS011;48284;46.828;29.480;2022-09-27T06:57:55;7.75;;;3.75;;
62289;SDS011;48284;46.828;29.480;2022-09-27T07:01:04;12.20;;;3.80;;
62289;SDS011;48284;46.828;29.480;2022-09-27T07:03:51;7.25;;;3.60;;
62289;SDS011;48284;46.828;29.480;2022-09-27T07:06:49;8.70;;;3.33;;
62289;SDS011;48284;46.828;29.480;2022-09-27T07:09:22;13.15;;;4.13;;
62289;SDS011;48284;46.828;29.480;2022-09-27T07:11:50;6.40;;;3.13;;
62289;SDS011;48284;46.828;29.480;2022-09-27T07:14:21;4.40;;;3.10;;
62289;SDS011;48284;46.828;29.480;2022-09-27T07:16:53;8.45;;;3.55;;
62289;SDS011;48284;46.828;29.480;2022-09-27T07:19:23;5.75;;;3.63;;
62289;SDS011;48284;46.828;29.480;2022-09-27T07:21:53;9.43;;;3.58;;
62289;SDS011;48284;46.828;29.480;2022-09-27T07:24:22;7.55;;;4.07;;
62289;SDS011;48284;46.828;29.480;2022-09-27T07:26:51;7.35;;;3.13;;
62289;SDS011;48284;46.828;29.480;2022-09-27T07:29:21;6.78;;;3.10;;
62289;SDS011;48284;46.828;29.480;2022-09-27T07:31:53;7.18;;;3.60;;
62289;SDS011;48284;46.828;29.480;2022-09-27T07:34:22;7.40;;;3.15;;
62289;SDS011;48284;46.828;29.480;2022-09-27T07:36:50;8.82;;;3.33;;
62289;SDS011;48284;46.828;29.480;2022-09-27T07:39:20;6.18;;;3.92;;
62289;SDS011;48284;46.828;29.480;2022-09-27T07:41:49;6.05;;;3.90;;
62289;SDS011;48284;46.828;29.480;2022-09-27T07:44:18;6.82;;;3.78;;
62289;SDS011;48284;46.828;29.480;2022-09-27T07:47:08;5.68;;;3.40;;
62289;SDS011;48284;46.828;29.480;2022-09-27T07:49:55;6.90;;;3.17;;
62289;SDS011;48284;46.828;29.480;2022-09-27T07:52:50;6.65;;;3.58;;
62289;SDS011;48284;46.828;29.480;2022-09-27T07:55:31;7.10;;;3.97;;
62289;SDS011;48284;46.828;29.480;2022-09-27T07:58:16;5.97;;;3.90;;
62289;SDS011;48284;46.828;29.480;2022-09-27T08:00:46;5.72;;;3.30;;
62289;SDS011;48284;46.828;29.480;2022-09-27T08:03:16;6.57;;;3.30;;
62289;SDS011;48284;46.828;29.480;2022-09-27T08:05:46;6.40;;;3.90;;
62289;SDS011;48284;46.828;29.480;2022-09-27T08:08:16;3.83;;;3.30;;
62289;SDS011;48284;46.828;29.480;2022-09-27T08:10:46;4.90;;;3.42;;
62289;SDS011;48284;46.828;29.480;2022-09-27T08:13:16;9.20;;;4.40;;
62289;SDS011;48284;46.828;29.480;2022-09-27T08:15:49;4.75;;;3.13;;
62289;SDS011;48284;46.828;29.480;2022-09-27T08:18:21;7.15;;;3.20;;
62289;SDS011;48284;46.828;29.480;2022-09-27T08:20:50;7.50;;;3.92;;
62289;SDS011;48284;46.828;29.480;2022-09-27T08:23:48;5.85;;;3.05;;
62289;SDS011;48284;46.828;29.480;2022-09-27T08:26:37;7.32;;;4.00;;
62289;SDS011;48284;46.828;29.480;2022-09-27T08:29:19;5.43;;;3.22;;
62289;SDS011;48284;46.828;29.480;2022-09-27T08:31:51;6.93;;;3.63;;
62289;SDS011;48284;46.828;29.480;2022-09-27T08:34:22;6.63;;;3.20;;
62289;SDS011;48284;46.828;29.480;2022-09-27T08:36:51;6.40;;;3.33;;
62289;SDS011;48284;46.828;29.480;2022-09-27T08:39:23;6.88;;;3.45;;
62289;SDS011;48284;46.828;29.480;2022-09-27T08:41:53;5.13;;;3.25;;
62289;SDS011;48284;46.828;29.480;2022-09-27T08:44:32;4.38;;;3.30;;
62289;SDS011;48284;46.828;29.480;2022-09-27T08:47:13;6.30;;;3.28;;
62289;SDS011;48284;46.828;29.480;2022-09-27T08:49:49;5.50;;;3.38;;
62289;SDS011;48284;46.828;29.480;2022-09-27T08:52:24;6.30;;;3.60;;
62289;SDS011;48284;46.828;29.480;2022-09-27T08:54:59;5.53;;;3.20;;
62289;SDS011;48284;46.828;29.480;2022-09-27T08:57:31;6.07;;;3.50;;
62289;SDS011;48284;46.828;29.480;2022-09-27T09:00:02;8.25;;;3.28;;
62289;SDS011;48284;46.828;29.480;2022-09-27T09:02:33;5.60;;;3.40;;
62289;SDS011;48284;46.828;29.480;2022-09-27T09:05:07;5.07;;;3.05;;
62289;SDS011;48284;46.828;29.480;2022-09-27T09:07:53;4.50;;;3.47;;
62289;SDS011;48284;46.828;29.480;2022-09-27T09:10:54;4.90;;;3.83;;
62289;SDS011;48284;46.828;29.480;2022-09-27T09:13:59;3.60;;;3.03;;
62289;SDS011;48284;46.828;29.480;2022-09-27T09:16:58;4.43;;;3.17;;
62289;SDS011;48284;46.828;29.480;2022-09-27T09:19:46;6.03;;;3.55;;
62289;SDS011;48284;46.828;29.480;2022-09-27T09:22:50;5.15;;;3.75;;
62289;SDS011;48284;46.828;29.480;2022-09-27T09:25:38;4.45;;;3.22;;
62289;SDS011;48284;46.828;29.480;2022-09-27T09:28:20;4.22;;;3.20;;
62289;SDS011;48284;46.828;29.480;2022-09-27T09:31:05;6.97;;;3.40;;
62289;SDS011;48284;46.828;29.480;2022-09-27T09:33:40;4.53;;;2.92;;
62289;SDS011;48284;46.828;29.480;2022-09-27T09:36:16;4.53;;;3.13;;
62289;SDS011;48284;46.828;29.480;2022-09-27T09:38:53;5.05;;;3.38;;
62289;SDS011;48284;46.828;29.480;2022-09-27T09:41:26;5.22;;;3.03;;
62289;SDS011;48284;46.828;29.480;2022-09-27T09:44:02;4.00;;;3.10;;
62289;SDS011;48284;46.828;29.480;2022-09-27T09:46:38;5.32;;;3.83;;
62289;SDS011;48284;46.828;29.480;2022-09-27T09:49:14;4.03;;;2.85;;
62289;SDS011;48284;46.828;29.480;2022-09-27T09:51:47;4.47;;;3.10;;
62289;SDS011;48284;46.828;29.480;2022-09-27T09:54:21;4.10;;;3.10;;
62289;SDS011;48284;46.828;29.480;2022-09-27T09:56:55;8.05;;;3.50;;
62289;SDS011;48284;46.828;29.480;2022-09-27T09:59:33;6.25;;;3.38;;
62289;SDS011;48284;46.828;29.480;2022-09-27T10:02:12;5.82;;;3.03;;
62289;SDS011;48284;46.828;29.480;2022-09-27T10:04:49;4.40;;;3.15;;
62289;SDS011;48284;46.828;29.480;2022-09-27T10:07:19;4.47;;;3.67;;
62289;SDS011;48284;46.828;29.480;2022-09-27T10:09:51;4.28;;;3.17;;
62289;SDS011;48284;46.828;29.480;2022-09-27T10:13:01;4.93;;;2.95;;
62289;SDS011;48284;46.828;29.480;2022-09-27T10:15:36;4.55;;;3.60;;
62289;SDS011;48284;46.828;29.480;2022-09-27T10:20:41;6.95;;;2.95;;
62289;SDS011;48284;46.828;29.480;2022-09-27T10:23:16;7.28;;;3.30;;
62289;SDS011;48284;46.828;29.480;2022-09-27T10:26:03;7.07;;;3.13;;
62289;SDS011;48284;46.828;29.480;2022-09-27T10:28:45;5.50;;;3.25;;
62289;SDS011;48284;46.828;29.480;2022-09-27T10:31:34;7.40;;;3.05;;
62289;SDS011;48284;46.828;29.480;2022-09-27T10:34:17;5.13;;;3.30;;
62289;SDS011;48284;46.828;29.480;2022-09-27T10:37:03;4.55;;;3.30;;
62289;SDS011;48284;46.828;29.480;2022-09-27T10:39:55;5.90;;;3.40;;
62289;SDS011;48284;46.828;29.480;2022-09-27T10:42:33;4.30;;;2.97;;
62289;SDS011;48284;46.828;29.480;2022-09-27T10:45:19;4.43;;;3.08;;
62289;SDS011;48284;46.828;29.480;2022-09-27T10:48:00;6.68;;;3.15;;
62289;SDS011;48284;46.828;29.480;2022-09-27T10:50:35;5.03;;;3.50;;
62289;SDS011;48284;46.828;29.480;2022-09-27T10:53:36;4.68;;;3.13;;
62289;SDS011;48284;46.828;29.480;2022-09-27T10:56:18;5.32;;;3.50;;
62289;SDS011;48284;46.828;29.480;2022-09-27T10:58:51;4.68;;;3.10;;
62289;SDS011;48284;46.828;29.480;2022-09-27T11:01:22;6.53;;;3.42;;
62289;SDS011;48284;46.828;29.480;2022-09-27T11:04:03;4.18;;;3.60;;
62289;SDS011;48284;46.828;29.480;2022-09-27T11:06:34;4.65;;;3.60;;
62289;SDS011;48284;46.828;29.480;2022-09-27T11:09:18;5.15;;;3.08;;
62289;SDS011;48284;46.828;29.480;2022-09-27T11:12:07;3.33;;;3.03;;
62289;SDS011;48284;46.828;29.480;2022-09-27T11:14:41;6.47;;;3.22;;
62289;SDS011;48284;46.828;29.480;2022-09-27T11:17:12;6.95;;;3.20;;
62289;SDS011;48284;46.828;29.480;2022-09-27T11:22:55;7.45;;;3.22;;
62289;SDS011;48284;46.828;29.480;2022-09-27T11:25:45;6.75;;;3.33;;
62289;SDS011;48284;46.828;29.480;2022-09-27T11:28:32;6.82;;;3.38;;
62289;SDS011;48284;46.828;29.480;2022-09-27T11:31:40;5.30;;;3.35;;
62289;SDS011;48284;46.828;29.480;2022-09-27T11:37:11;6.10;;;3.30;;
62289;SDS011;48284;46.828;29.480;2022-09-27T11:42:37;4.78;;;3.20;;
62289;SDS011;48284;46.828;29.480;2022-09-27T11:45:30;5.38;;;3.78;;
62289;SDS011;48284;46.828;29.480;2022-09-27T11:48:43;6.65;;;3.50;;
62289;SDS011;48284;46.828;29.480;2022-09-27T11:51:24;7.35;;;3.22;;
62289;SDS011;48284;46.828;29.480;2022-09-27T11:54:12;3.90;;;3.33;;
62289;SDS011;48284;46.828;29.480;2022-09-27T11:56:55;6.05;;;2.80;;
62289;SDS011;48284;46.828;29.480;2022-09-27T11:59:36;8.88;;;3.47;;
62289;SDS011;48284;46.828;29.480;2022-09-27T12:02:39;4.47;;;3.30;;
62289;SDS011;48284;46.828;29.480;2022-09-27T12:05:32;3.40;;;3.05;;
62289;SDS011;48284;46.828;29.480;2022-09-27T12:08:11;7.88;;;3.17;;
62289;SDS011;48284;46.828;29.480;2022-09-27T12:10:56;3.90;;;3.17;;
62289;SDS011;48284;46.828;29.480;2022-09-27T12:13:33;5.20;;;3.35;;
62289;SDS011;48284;46.828;29.480;2022-09-27T12:16:06;3.60;;;2.97;;
62289;SDS011;48284;46.828;29.480;2022-09-27T12:18:38;3.95;;;2.95;;
62289;SDS011;48284;46.828;29.480;2022-09-27T12:21:32;5.18;;;3.10;;
62289;SDS011;48284;46.828;29.480;2022-09-27T12:24:01;5.90;;;3.28;;
62289;SDS011;48284;46.828;29.480;2022-09-27T12:26:37;5.65;;;3.25;;
62289;SDS011;48284;46.828;29.480;2022-09-27T12:29:16;3.10;;;2.53;;
62289;SDS011;48284;46.828;29.480;2022-09-27T12:31:50;9.15;;;3.50;;
62289;SDS011;48284;46.828;29.480;2022-09-27T12:34:26;4.00;;;2.85;;
62289;SDS011;48284;46.828;29.480;2022-09-27T12:37:03;12.32;;;3.33;;
62289;SDS011;48284;46.828;29.480;2022-09-27T12:39:41;5.80;;;3.65;;
62289;SDS011;48284;46.828;29.480;2022-09-27T12:42:23;7.60;;;3.20;;
62289;SDS011;48284;46.828;29.480;2022-09-27T12:44:59;10.20;;;3.50;;
62289;SDS011;48284;46.828;29.480;2022-09-27T12:47:35;7.82;;;3.28;;
62289;SDS011;48284;46.828;29.480;2022-09-27T12:50:20;6.15;;;3.17;;
62289;SDS011;48284;46.828;29.480;2022-09-27T12:53:00;7.65;;;3.30;;
62289;SDS011;48284;46.828;29.480;2022-09-27T12:55:40;4.32;;;2.92;;
62289;SDS011;48284;46.828;29.480;2022-09-27T12:58:27;8.40;;;3.05;;
62289;SDS011;48284;46.828;29.480;2022-09-27T13:01:13;7.07;;;2.70;;
62289;SDS011;48284;46.828;29.480;2022-09-27T13:03:56;6.35;;;3.00;;
62289;SDS011;48284;46.828;29.480;2022-09-27T13:06:42;5.82;;;3.13;;
62289;SDS011;48284;46.828;29.480;2022-09-27T13:09:33;3.10;;;2.80;;
62289;SDS011;48284;46.828;29.480;2022-09-27T13:12:16;6.28;;;3.25;;
62289;SDS011;48284;46.828;29.480;2022-09-27T13:14:51;4.50;;;3.72;;
62289;SDS011;48284;46.828;29.480;2022-09-27T13:26:48;6.18;;;3.10;;
62289;SDS011;48284;46.828;29.480;2022-09-27T13:29:28;3.78;;;3.00;;
62289;SDS011;48284;46.828;29.480;2022-09-27T13:32:10;6.00;;;3.03;;
62289;SDS011;48284;46.828;29.480;2022-09-27T13:35:17;4.00;;;3.13;;
62289;SDS011;48284;46.828;29.480;2022-09-27T13:38:01;3.58;;;2.78;;
62289;SDS011;48284;46.828;29.480;2022-09-27T13:40:42;5.38;;;2.95;;
62289;SDS011;48284;46.828;29.480;2022-09-27T13:43:48;5.15;;;2.92;;
62289;SDS011;48284;46.828;29.480;2022-09-27T13:46:44;3.60;;;2.95;;
62289;SDS011;48284;46.828;29.480;2022-09-27T13:49:22;6.35;;;3.05;;
62289;SDS011;48284;46.828;29.480;2022-09-27T13:52:16;4.07;;;2.72;;
62289;SDS011;48284;46.828;29.480;2022-09-27T14:01:14;4.05;;;3.08;;
62289;SDS011;48284;46.828;29.480;2022-09-27T14:03:49;3.30;;;3.00;;
62289;SDS011;48284;46.828;29.480;2022-09-27T14:06:21;4.32;;;3.28;;
62289;SDS011;48284;46.828;29.480;2022-09-27T14:08:55;3.60;;;2.78;;
62289;SDS011;48284;46.828;29.480;2022-09-27T14:11:26;4.25;;;3.13;;
62289;SDS011;48284;46.828;29.480;2022-09-27T14:13:57;3.30;;;2.95;;
62289;SDS011;48284;46.828;29.480;2022-09-27T14:16:35;3.88;;;2.88;;
62289;SDS011;48284;46.828;29.480;2022-09-27T14:19:11;3.80;;;3.40;;
62289;SDS011;48284;46.828;29.480;2022-09-27T14:24:42;3.50;;;3.03;;
62289;SDS011;48284;46.828;29.480;2022-09-27T14:27:18;3.78;;;3.00;;
62289;SDS011;48284;46.828;29.480;2022-09-27T14:29:55;3.38;;;2.78;;
62289;SDS011;48284;46.828;29.480;2022-09-27T14:32:32;4.53;;;3.05;;
62289;SDS011;48284;46.828;29.480;2022-09-27T14:35:11;3.35;;;2.70;;
62289;SDS011;48284;46.828;29.480;2022-09-27T14:37:55;7.43;;;3.25;;
62289;SDS011;48284;46.828;29.480;2022-09-27T14:40:42;3.50;;;2.60;;
62289;SDS011;48284;46.828;29.480;2022-09-27T14:43:21;4.35;;;3.03;;
62289;SDS011;48284;46.828;29.480;2022-09-27T14:45:50;3.90;;;2.85;;
62289;SDS011;48284;46.828;29.480;2022-09-27T14:48:27;3.25;;;2.70;;
62289;SDS011;48284;46.828;29.480;2022-09-27T14:50:58;3.03;;;2.72;;
62289;SDS011;48284;46.828;29.480;2022-09-27T14:53:34;3.33;;;2.60;;
62289;SDS011;48284;46.828;29.480;2022-09-27T14:56:04;3.33;;;2.92;;
62289;SDS011;48284;46.828;29.480;2022-09-27T14:58:33;3.67;;;3.05;;
62289;SDS011;48284;46.828;29.480;2022-09-27T15:01:13;4.03;;;2.70;;
62289;SDS011;48284;46.828;29.480;2022-09-27T15:03:45;5.25;;;2.70;;
62289;SDS011;48284;46.828;29.480;2022-09-27T15:06:15;2.78;;;2.50;;
62289;SDS011;48284;46.828;29.480;2022-09-27T15:08:45;3.03;;;2.60;;
62289;SDS011;48284;46.828;29.480;2022-09-27T15:11:16;2.90;;;2.60;;
62289;SDS011;48284;46.828;29.480;2022-09-27T15:13:46;3.25;;;2.83;;
62289;SDS011;48284;46.828;29.480;2022-09-27T15:16:19;3.95;;;2.85;;
62289;SDS011;48284;46.828;29.480;2022-09-27T15:18:59;4.43;;;2.88;;
62289;SDS011;48284;46.828;29.480;2022-09-27T15:21:30;4.60;;;2.97;;
62289;SDS011;48284;46.828;29.480;2022-09-27T15:23:59;4.05;;;2.80;;
62289;SDS011;48284;46.828;29.480;2022-09-27T15:26:33;5.60;;;3.38;;
62289;SDS011;48284;46.828;29.480;2022-09-27T15:29:04;5.15;;;3.67;;
62289;SDS011;48284;46.828;29.480;2022-09-27T15:31:33;4.78;;;3.20;;
62289;SDS011;48284;46.828;29.480;2022-09-27T15:34:05;7.10;;;3.40;;
62289;SDS011;48284;46.828;29.480;2022-09-27T15:39:26;6.05;;;3.70;;
62289;SDS011;48284;46.828;29.480;2022-09-27T15:42:05;5.47;;;3.50;;
62289;SDS011;48284;46.828;29.480;2022-09-27T15:44:36;6.72;;;3.53;;
62289;SDS011;48284;46.828;29.480;2022-09-27T15:53:07;9.10;;;6.28;;
62289;SDS011;48284;46.828;29.480;2022-09-27T15:55:38;8.93;;;6.10;;
62289;SDS011;48284;46.828;29.480;2022-09-27T15:58:12;7.95;;;6.18;;
62289;SDS011;48284;46.828;29.480;2022-09-27T16:00:52;8.35;;;6.50;;
62289;SDS011;48284;46.828;29.480;2022-09-27T16:05:52;10.10;;;7.43;;
62289;SDS011;48284;46.828;29.480;2022-09-27T16:08:23;14.40;;;7.40;;
62289;SDS011;48284;46.828;29.480;2022-09-27T16:10:53;10.20;;;7.88;;
62289;SDS011;48284;46.828;29.480;2022-09-27T16:13:23;12.27;;;9.35;;
62289;SDS011;48284;46.828;29.480;2022-09-27T16:15:58;14.77;;;9.25;;
62289;SDS011;48284;46.828;29.480;2022-09-27T16:18:27;15.98;;;9.57;;
62289;SDS011;48284;46.828;29.480;2022-09-27T16:20:58;14.38;;;10.45;;
62289;SDS011;48284;46.828;29.480;2022-09-27T16:23:26;13.50;;;10.05;;
62289;SDS011;48284;46.828;29.480;2022-09-27T16:25:55;16.30;;;10.55;;
62289;SDS011;48284;46.828;29.480;2022-09-27T16:28:24;13.15;;;10.05;;
62289;SDS011;48284;46.828;29.480;2022-09-27T16:30:52;17.38;;;10.70;;